createdAt,value
2022-08-06T00:00:03.503Z,15.60
2022-08-06T00:02:29.168Z,15.50
2022-08-06T00:05:00.007Z,15.50
2022-08-06T00:07:28.186Z,15.50
2022-08-06T00:10:00.393Z,15.50
2022-08-06T00:12:31.095Z,15.40
2022-08-06T00:15:00.925Z,15.50
2022-08-06T00:17:31.506Z,15.40
2022-08-06T00:20:00.923Z,15.50
2022-08-06T00:22:29.370Z,15.50
2022-08-06T00:24:58.340Z,15.50
2022-08-06T00:27:29.128Z,15.50
2022-08-06T00:30:06.087Z,15.50
2022-08-06T00:32:33.936Z,15.40
2022-08-06T00:35:01.747Z,15.30
2022-08-06T00:37:57.157Z,15.20
2022-08-06T00:40:24.419Z,15.00
2022-08-06T00:42:54.441Z,14.80
2022-08-06T00:45:24.164Z,14.70
2022-08-06T00:48:01.583Z,14.60
2022-08-06T00:50:31.590Z,14.60
2022-08-06T00:53:01.036Z,14.50
2022-08-06T00:55:31.905Z,14.50
2022-08-06T00:58:06.879Z,14.40
2022-08-06T01:00:38.410Z,14.40
2022-08-06T01:03:18.745Z,14.40
2022-08-06T01:06:47.038Z,14.70
2022-08-06T01:08:33.116Z,15.00
2022-08-06T01:11:00.125Z,15.10
2022-08-06T01:13:44.693Z,14.90
2022-08-06T01:16:29.942Z,14.70
2022-08-06T01:19:03.224Z,14.70
2022-08-06T01:22:31.713Z,14.80
2022-08-06T01:25:21.499Z,14.60
2022-08-06T01:28:00.901Z,14.40
2022-08-06T01:30:41.621Z,14.30
2022-08-06T01:33:24.974Z,14.30
2022-08-06T01:36:01.413Z,14.20
2022-08-06T01:38:43.874Z,14.20
2022-08-06T01:41:56.681Z,14.10
2022-08-06T01:44:29.029Z,14.00
2022-08-06T01:46:57.964Z,14.00
2022-08-06T01:50:01.514Z,14.00
2022-08-06T01:52:18.034Z,14.00
2022-08-06T01:54:59.482Z,14.00
2022-08-06T01:58:04.761Z,13.90
2022-08-06T02:00:19.650Z,13.90
2022-08-06T02:02:57.749Z,14.00
2022-08-06T02:05:25.972Z,13.80
2022-08-06T02:08:33.995Z,13.80
2022-08-06T02:10:50.577Z,13.80
2022-08-06T02:13:20.689Z,13.70
2022-08-06T02:15:59.625Z,13.60
2022-08-06T02:18:34.069Z,13.50
2022-08-06T02:21:18.868Z,13.60
2022-08-06T02:23:56.111Z,13.60
2022-08-06T02:26:25.786Z,13.50
2022-08-06T02:29:01.262Z,13.40
2022-08-06T02:31:28.609Z,13.30
2022-08-06T02:34:14.106Z,13.40
2022-08-06T02:36:49.870Z,13.30
2022-08-06T02:39:30.199Z,13.30
2022-08-06T02:42:22.434Z,13.20
2022-08-06T02:45:08.425Z,13.20
2022-08-06T02:48:00.577Z,13.20
2022-08-06T02:50:36.661Z,13.10
2022-08-06T02:53:23.871Z,13.10
2022-08-06T02:56:00.863Z,13.10
2022-08-06T02:58:57.379Z,13.10
2022-08-06T03:01:42.914Z,13.10
2022-08-06T03:04:12.619Z,13.10
2022-08-06T03:06:46.116Z,13.20
2022-08-06T03:09:16.454Z,13.30
2022-08-06T03:11:47.505Z,13.50
2022-08-06T03:15:04.125Z,13.40
2022-08-06T03:17:08.698Z,13.50
2022-08-06T03:19:56.326Z,13.50
2022-08-06T03:22:35.113Z,13.50
2022-08-06T03:25:13.618Z,13.60
2022-08-06T03:27:44.720Z,13.50
2022-08-06T03:30:33.113Z,13.40
2022-08-06T03:33:07.949Z,13.20
2022-08-06T03:35:54.925Z,13.00
2022-08-06T03:38:28.351Z,12.90
2022-08-06T03:40:58.636Z,13.00
2022-08-06T03:43:27.419Z,12.90
2022-08-06T03:46:01.254Z,12.90
2022-08-06T03:48:41.396Z,12.90
2022-08-06T03:51:14.498Z,12.80
2022-08-06T03:53:46.818Z,12.70
2022-08-06T03:56:29.668Z,12.70
2022-08-06T03:59:04.590Z,12.70
2022-08-06T04:01:43.012Z,12.80
2022-08-06T04:04:26.404Z,12.80
2022-08-06T04:06:57.464Z,12.80
2022-08-06T04:09:33.775Z,13.00
2022-08-06T04:12:58.710Z,13.10
2022-08-06T04:15:04.867Z,13.00
2022-08-06T04:17:40.485Z,12.90
2022-08-06T04:20:11.928Z,12.90
2022-08-06T04:23:04.975Z,13.00
2022-08-06T04:25:29.315Z,13.00
2022-08-06T04:27:57.653Z,13.00
2022-08-06T04:30:29.497Z,12.90
2022-08-06T04:33:00.685Z,12.80
2022-08-06T04:36:05.994Z,12.70
2022-08-06T04:38:26.798Z,12.70
2022-08-06T04:40:58.083Z,12.70
2022-08-06T04:43:38.472Z,12.70
2022-08-06T04:46:15.603Z,12.70
2022-08-06T04:48:48.347Z,12.70
2022-08-06T04:52:34.099Z,12.70
2022-08-06T04:54:12.249Z,12.70
2022-08-06T04:56:48.415Z,12.70
2022-08-06T04:59:18.903Z,12.70
2022-08-06T05:01:57.281Z,12.80
2022-08-06T05:04:32.574Z,12.80
2022-08-06T05:07:08.510Z,12.80
2022-08-06T05:09:43.513Z,13.00
2022-08-06T05:12:25.567Z,13.30
2022-08-06T05:15:06.868Z,13.40
2022-08-06T05:17:48.728Z,13.30
2022-08-06T05:20:27.654Z,13.20
2022-08-06T05:23:19.709Z,13.30
2022-08-06T05:25:54.202Z,13.60
2022-08-06T05:28:27.232Z,13.40
2022-08-06T05:30:56.950Z,13.50
2022-08-06T05:33:32.050Z,13.70
2022-08-06T05:36:04.705Z,13.90
2022-08-06T05:38:35.684Z,14.00
2022-08-06T05:41:08.337Z,14.10
2022-08-06T05:43:57.986Z,14.20
2022-08-06T05:46:26.165Z,14.30
2022-08-06T05:49:23.336Z,14.40
2022-08-06T05:52:18.641Z,14.50
2022-08-06T05:54:49.427Z,14.60
2022-08-06T05:57:41.926Z,14.60
2022-08-06T06:00:31.699Z,14.70
2022-08-06T06:03:10.115Z,14.80
2022-08-06T06:06:04.419Z,14.90
2022-08-06T06:08:39.904Z,15.00
2022-08-06T06:11:09.927Z,15.20
2022-08-06T06:13:59.543Z,15.20
2022-08-06T06:16:46.474Z,15.30
2022-08-06T06:19:29.802Z,15.40
2022-08-06T06:22:10.693Z,15.50
2022-08-06T06:24:47.855Z,15.60
2022-08-06T06:27:58.859Z,15.70
2022-08-06T06:30:40.004Z,15.80
2022-08-06T06:33:36.811Z,15.90
2022-08-06T06:36:21.237Z,16.00
2022-08-06T06:38:53.350Z,16.10
2022-08-06T06:41:38.118Z,16.20
2022-08-06T06:44:57.452Z,16.30
2022-08-06T06:47:58.180Z,16.30
2022-08-06T06:50:30.146Z,16.40
2022-08-06T06:52:58.208Z,16.50
2022-08-06T06:55:52.388Z,16.60
2022-08-06T06:58:28.405Z,16.70
2022-08-06T07:01:27.511Z,16.80
2022-08-06T07:03:50.982Z,16.90
2022-08-06T07:06:31.597Z,16.90
2022-08-06T07:09:12.396Z,17.00
2022-08-06T07:12:01.927Z,17.00
2022-08-06T07:14:34.375Z,17.20
2022-08-06T07:17:45.013Z,17.20
2022-08-06T07:19:57.535Z,17.40
2022-08-06T07:22:26.184Z,17.50
2022-08-06T07:25:01.270Z,17.60
2022-08-06T07:27:43.080Z,17.60
2022-08-06T07:30:20.684Z,17.70
2022-08-06T07:32:53.228Z,17.90
2022-08-06T07:35:23.358Z,17.90
2022-08-06T07:38:07.133Z,18.10
2022-08-06T07:40:46.017Z,18.20
2022-08-06T07:43:24.087Z,18.40
2022-08-06T07:45:55.579Z,18.40
2022-08-06T07:48:52.630Z,18.20
2022-08-06T07:51:34.146Z,18.30
2022-08-06T07:54:09.475Z,18.40
2022-08-06T07:57:00.245Z,18.60
2022-08-06T07:59:30.503Z,18.70
2022-08-06T08:02:00.476Z,18.90
2022-08-06T08:04:52.202Z,19.00
2022-08-06T08:07:37.642Z,19.00
2022-08-06T08:10:10.527Z,19.00
2022-08-06T08:12:39.099Z,19.20
2022-08-06T08:15:19.001Z,19.20
2022-08-06T08:17:57.318Z,19.00
2022-08-06T08:20:34.336Z,19.00
2022-08-06T08:23:05.673Z,19.20
2022-08-06T08:25:42.193Z,19.30
2022-08-06T08:28:17.570Z,19.30
2022-08-06T08:30:49.449Z,19.40
2022-08-06T08:33:19.328Z,19.40
2022-08-06T08:36:01.402Z,19.60
2022-08-06T08:38:31.097Z,20.00
2022-08-06T08:41:04.005Z,20.00
2022-08-06T08:43:59.819Z,19.90
2022-08-06T08:46:30.715Z,19.70
2022-08-06T08:49:04.275Z,19.70
2022-08-06T08:51:42.199Z,19.90
2022-08-06T08:54:16.466Z,19.90
2022-08-06T08:57:06.652Z,20.10
2022-08-06T08:59:57.822Z,20.00
2022-08-06T09:02:24.403Z,20.20
2022-08-06T09:04:52.952Z,20.50
2022-08-06T09:07:25.548Z,20.70
2022-08-06T09:10:01.575Z,20.70
2022-08-06T09:12:37.165Z,20.50
2022-08-06T09:15:16.232Z,20.50
2022-08-06T09:18:11.074Z,20.40
2022-08-06T09:20:35.455Z,20.60
2022-08-06T09:23:07.728Z,20.40
2022-08-06T09:25:51.973Z,20.90
2022-08-06T09:28:40.026Z,21.20
2022-08-06T09:31:21.899Z,21.00
2022-08-06T09:34:29.553Z,21.40
2022-08-06T09:36:52.272Z,21.30
2022-08-06T09:39:46.503Z,21.50
2022-08-06T09:42:43.093Z,21.10
2022-08-06T09:45:16.481Z,21.50
2022-08-06T09:47:47.519Z,21.60
2022-08-06T09:50:44.241Z,21.40
2022-08-06T09:53:21.684Z,21.50
2022-08-06T09:55:53.322Z,21.60
2022-08-06T09:58:37.660Z,21.80
2022-08-06T10:01:24.825Z,22.00
2022-08-06T10:04:02.124Z,22.10
2022-08-06T10:06:34.384Z,22.20
2022-08-06T10:09:41.362Z,22.30
2022-08-06T10:12:01.669Z,22.20
2022-08-06T10:14:34.931Z,22.70
2022-08-06T10:17:22.518Z,22.80
2022-08-06T10:20:18.883Z,22.30
2022-08-06T10:22:57.570Z,22.60
2022-08-06T10:25:30.084Z,22.40
2022-08-06T10:27:59.863Z,22.50
2022-08-06T10:30:33.423Z,22.50
2022-08-06T10:33:22.647Z,22.20
2022-08-06T10:35:55.541Z,22.70
2022-08-06T10:38:34.820Z,22.90
2022-08-06T10:41:59.582Z,22.80
2022-08-06T10:43:59.020Z,22.80
2022-08-06T10:46:26.346Z,23.00
2022-08-06T10:50:23.189Z,23.40
2022-08-06T10:51:56.196Z,23.30
2022-08-06T10:54:27.036Z,23.20
2022-08-06T10:56:55.767Z,23.20
2022-08-06T10:59:25.566Z,23.30
2022-08-06T11:02:19.786Z,23.40
2022-08-06T11:05:17.854Z,23.00
2022-08-06T11:08:43.236Z,23.50
2022-08-06T11:11:23.094Z,24.00
2022-08-06T11:13:58.614Z,24.10
2022-08-06T11:16:34.338Z,24.50
2022-08-06T11:19:07.646Z,24.00
2022-08-06T11:22:01.068Z,23.80
2022-08-06T11:24:26.210Z,24.20
2022-08-06T11:27:01.370Z,24.20
2022-08-06T11:29:55.349Z,24.40
2022-08-06T11:32:45.442Z,24.20
2022-08-06T11:35:36.045Z,23.90
2022-08-06T11:38:24.645Z,24.20
2022-08-06T11:40:59.125Z,24.20
2022-08-06T11:44:02.919Z,23.90
2022-08-06T11:46:43.106Z,24.00
2022-08-06T11:49:18.223Z,24.00
2022-08-06T11:51:46.890Z,23.80
2022-08-06T11:54:24.406Z,24.30
2022-08-06T11:57:08.291Z,23.90
2022-08-06T11:59:56.460Z,23.60
2022-08-06T12:02:47.257Z,23.80
2022-08-06T12:05:33.994Z,24.20
2022-08-06T12:08:22.320Z,24.30
2022-08-06T12:11:29.533Z,24.30
2022-08-06T12:14:32.944Z,24.60
2022-08-06T12:16:53.480Z,24.20
2022-08-06T12:19:24.188Z,24.90
2022-08-06T12:21:57.327Z,25.10
2022-08-06T12:24:39.698Z,24.40
2022-08-06T12:27:15.220Z,24.40
2022-08-06T12:29:43.507Z,23.90
2022-08-06T12:32:26.060Z,23.80
2022-08-06T12:34:59.526Z,23.70
2022-08-06T12:37:41.120Z,23.90
2022-08-06T12:40:34.378Z,24.60
2022-08-06T12:43:14.474Z,24.80
2022-08-06T12:46:04.449Z,24.00
2022-08-06T12:48:35.390Z,24.40
2022-08-06T12:51:03.739Z,24.20
2022-08-06T12:53:40.243Z,24.70
2022-08-06T12:56:16.246Z,24.70
2022-08-06T12:58:58.839Z,24.60
2022-08-06T13:02:10.157Z,24.00
2022-08-06T13:04:19.687Z,24.00
2022-08-06T13:06:48.799Z,23.70
2022-08-06T13:09:18.081Z,24.00
2022-08-06T13:11:50.965Z,24.60
2022-08-06T13:14:19.462Z,24.90
2022-08-06T13:16:56.298Z,24.30
2022-08-06T13:19:33.041Z,23.70
2022-08-06T13:22:11.196Z,23.90
2022-08-06T13:25:03.665Z,23.80
2022-08-06T13:27:55.457Z,23.90
2022-08-06T13:30:38.163Z,23.90
2022-08-06T13:33:21.278Z,24.20
2022-08-06T13:35:51.000Z,24.00
2022-08-06T13:38:29.189Z,24.20
2022-08-06T13:41:04.255Z,23.90
2022-08-06T13:43:39.208Z,23.70
2022-08-06T13:46:27.383Z,23.80
2022-08-06T13:48:59.235Z,23.90
2022-08-06T13:51:35.360Z,24.10
2022-08-06T13:54:16.186Z,24.40
2022-08-06T13:56:48.603Z,24.70
2022-08-06T13:59:21.348Z,24.20
2022-08-06T14:01:49.950Z,24.00
2022-08-06T14:04:25.284Z,23.80
2022-08-06T14:06:54.054Z,24.00
2022-08-06T14:09:25.674Z,24.00
2022-08-06T14:12:01.375Z,24.50
2022-08-06T14:14:31.003Z,24.60
2022-08-06T14:17:00.110Z,24.90
2022-08-06T14:20:16.654Z,24.50
2022-08-06T14:22:16.267Z,24.70
2022-08-06T14:24:53.107Z,24.20
2022-08-06T14:27:24.219Z,24.10
2022-08-06T14:30:30.094Z,24.20
2022-08-06T14:32:39.020Z,24.20
2022-08-06T14:35:08.511Z,24.40
2022-08-06T14:37:49.589Z,24.90
2022-08-06T14:40:42.953Z,24.60
2022-08-06T14:43:55.473Z,25.00
2022-08-06T14:46:27.031Z,24.50
2022-08-06T14:48:57.955Z,24.70
2022-08-06T14:52:10.227Z,25.00
2022-08-06T14:54:14.671Z,25.30
2022-08-06T14:56:45.480Z,25.60
2022-08-06T14:59:26.251Z,25.70
2022-08-06T15:01:59.655Z,26.00
2022-08-06T15:04:26.732Z,25.70
2022-08-06T15:06:57.450Z,25.90
2022-08-06T15:09:28.131Z,25.20
2022-08-06T15:12:34.262Z,24.80
2022-08-06T15:15:09.214Z,25.10
2022-08-06T15:18:05.171Z,25.10
2022-08-06T15:20:28.653Z,25.10
2022-08-06T15:22:56.289Z,24.60
2022-08-06T15:26:01.917Z,24.60
2022-08-06T15:28:12.651Z,24.30
2022-08-06T15:30:40.314Z,24.20
2022-08-06T15:33:14.432Z,24.30
2022-08-06T15:35:56.789Z,24.30
2022-08-06T15:38:32.407Z,23.90
2022-08-06T15:41:01.066Z,24.00
2022-08-06T15:43:44.034Z,23.60
2022-08-06T15:46:12.814Z,23.40
2022-08-06T15:48:46.910Z,23.80
2022-08-06T15:51:28.259Z,23.40
2022-08-06T15:53:58.767Z,23.30
2022-08-06T15:56:39.362Z,23.10
2022-08-06T15:59:20.701Z,23.10
2022-08-06T16:01:52.571Z,23.00
2022-08-06T16:04:32.141Z,23.00
2022-08-06T16:07:18.234Z,23.00
2022-08-06T16:10:03.077Z,23.10
2022-08-06T16:12:34.827Z,23.10
2022-08-06T16:15:03.231Z,23.00
2022-08-06T16:17:53.465Z,22.90
2022-08-06T16:20:20.975Z,22.70
2022-08-06T16:22:52.212Z,22.60
2022-08-06T16:25:20.702Z,22.30
2022-08-06T16:27:48.400Z,22.10
2022-08-06T16:30:16.493Z,22.10
2022-08-06T16:32:44.834Z,22.20
2022-08-06T16:35:15.035Z,22.20
2022-08-06T16:37:45.328Z,22.20
2022-08-06T16:40:20.720Z,22.10
2022-08-06T16:42:49.560Z,22.20
2022-08-06T16:45:19.312Z,22.50
2022-08-06T16:48:22.250Z,22.60
2022-08-06T16:50:42.223Z,22.90
2022-08-06T16:54:12.380Z,23.00
2022-08-06T16:55:57.754Z,23.00
2022-08-06T16:58:35.223Z,23.00
2022-08-06T17:02:14.903Z,23.00
2022-08-06T17:03:56.448Z,23.30
2022-08-06T17:06:29.992Z,23.30
2022-08-06T17:08:58.297Z,23.10
2022-08-06T17:11:45.330Z,23.30
2022-08-06T17:14:17.000Z,23.20
2022-08-06T17:16:47.183Z,23.30
2022-08-06T17:19:19.453Z,23.30
2022-08-06T17:21:58.603Z,23.20
2022-08-06T17:27:44.406Z,22.80
2022-08-06T17:30:12.318Z,22.60
2022-08-06T17:36:32.016Z,22.40
2022-08-06T17:38:17.465Z,22.30
2022-08-06T17:40:49.141Z,22.10
2022-08-06T17:43:22.913Z,22.00
2022-08-06T17:46:25.916Z,22.10
2022-08-06T17:48:56.113Z,22.10
2022-08-06T17:51:23.882Z,21.90
2022-08-06T17:54:28.563Z,22.00
2022-08-06T17:56:49.381Z,21.90
2022-08-06T17:59:21.634Z,21.70
2022-08-06T18:01:50.316Z,21.60
2022-08-06T18:04:22.322Z,21.60
2022-08-06T18:06:58.336Z,21.60
2022-08-06T18:10:09.439Z,21.50
2022-08-06T18:12:13.325Z,21.50
2022-08-06T18:14:41.235Z,21.40
2022-08-06T18:17:17.178Z,21.20
2022-08-06T18:19:44.710Z,21.10
2022-08-06T18:22:23.117Z,21.10
2022-08-06T18:24:54.181Z,21.10
2022-08-06T18:27:53.691Z,21.10
2022-08-06T18:30:36.453Z,21.00
2022-08-06T18:33:03.902Z,20.90
2022-08-06T18:35:55.600Z,20.70
2022-08-06T18:38:22.190Z,20.70
2022-08-06T18:41:00.885Z,20.60
2022-08-06T18:43:49.012Z,20.60
2022-08-06T18:46:55.997Z,20.50
2022-08-06T18:49:09.416Z,20.40
2022-08-06T18:51:42.582Z,20.30
2022-08-06T18:54:14.143Z,20.40
2022-08-06T18:56:49.617Z,20.40
2022-08-06T18:59:26.226Z,20.20
2022-08-06T19:01:57.846Z,20.30
2022-08-06T19:04:28.604Z,20.20
2022-08-06T19:07:03.260Z,20.20
2022-08-06T19:09:36.709Z,20.20
2022-08-06T19:12:12.505Z,20.10
2022-08-06T19:14:43.799Z,19.90
2022-08-06T19:17:14.841Z,19.90
2022-08-06T19:20:19.421Z,19.80
2022-08-06T19:22:46.925Z,19.80
2022-08-06T19:25:28.621Z,19.70
2022-08-06T19:28:35.833Z,19.70
2022-08-06T19:30:57.968Z,19.60
2022-08-06T19:33:28.026Z,19.40
2022-08-06T19:36:07.301Z,19.40
2022-08-06T19:38:39.433Z,19.40
2022-08-06T19:41:07.077Z,19.40
2022-08-06T19:44:25.087Z,19.30
2022-08-06T19:46:29.250Z,19.30
2022-08-06T19:49:00.453Z,19.30
2022-08-06T19:52:04.601Z,19.20
2022-08-06T19:54:19.622Z,19.10
2022-08-06T19:56:53.633Z,19.10
2022-08-06T20:00:52.442Z,19.10
2022-08-06T20:02:16.285Z,19.00
2022-08-06T20:04:43.559Z,19.00
2022-08-06T20:07:24.613Z,19.00
2022-08-06T20:10:01.627Z,18.90
2022-08-06T20:12:38.258Z,18.90
2022-08-06T20:15:08.886Z,18.90
2022-08-06T20:17:49.186Z,18.80
2022-08-06T20:20:30.332Z,18.60
2022-08-06T20:23:11.441Z,18.60
2022-08-06T20:26:09.161Z,18.50
2022-08-06T20:29:07.842Z,18.60
2022-08-06T20:31:17.416Z,18.60
2022-08-06T20:33:58.705Z,18.50
2022-08-06T20:36:29.265Z,18.50
2022-08-06T20:38:57.497Z,18.50
2022-08-06T20:41:58.571Z,18.40
2022-08-06T20:44:12.188Z,18.40
2022-08-06T20:50:01.365Z,18.30
2022-08-06T20:52:18.005Z,18.20
2022-08-06T20:54:52.253Z,18.20
2022-08-06T20:57:21.874Z,18.20
2022-08-06T20:59:59.555Z,18.20
2022-08-06T21:02:32.943Z,18.10
2022-08-06T21:05:13.452Z,18.10
2022-08-06T21:07:56.806Z,18.00
2022-08-06T21:10:31.133Z,18.00
2022-08-06T21:13:02.696Z,18.00
2022-08-06T21:15:54.508Z,17.90
2022-08-06T21:18:22.092Z,17.90
2022-08-06T21:20:53.394Z,17.90
2022-08-06T21:23:42.071Z,17.80
2022-08-06T21:26:15.301Z,17.80
2022-08-06T21:28:54.261Z,17.70
2022-08-06T21:31:27.264Z,17.70
2022-08-06T21:33:56.672Z,17.70
2022-08-06T21:36:26.780Z,17.60
2022-08-06T21:38:59.040Z,17.60
2022-08-06T21:41:55.662Z,17.50
2022-08-06T21:44:17.535Z,17.50
2022-08-06T21:46:57.996Z,17.50
2022-08-06T21:49:59.361Z,17.50
2022-08-06T21:52:28.331Z,17.50
2022-08-06T21:55:05.424Z,17.40
2022-08-06T21:57:48.062Z,17.40
2022-08-06T22:00:34.885Z,17.40
2022-08-06T22:03:07.285Z,17.40
2022-08-06T22:06:22.236Z,17.40
2022-08-06T22:08:32.397Z,17.30
2022-08-06T22:12:40.018Z,17.30
2022-08-06T22:14:00.861Z,17.20
2022-08-06T22:16:33.177Z,17.20
2022-08-06T22:19:01.009Z,17.10
2022-08-06T22:21:50.063Z,17.30
2022-08-06T22:24:18.806Z,17.30
2022-08-06T22:26:45.835Z,17.10
2022-08-06T22:29:18.201Z,17.00
2022-08-06T22:31:57.611Z,17.00
2022-08-06T22:34:37.089Z,17.00
2022-08-06T22:37:14.844Z,17.00
2022-08-06T22:39:57.024Z,16.90
2022-08-06T22:42:56.134Z,16.80
2022-08-06T22:45:47.463Z,16.80
2022-08-06T22:48:03.400Z,16.80
2022-08-06T22:50:32.892Z,16.90
2022-08-06T22:53:03.048Z,16.80
2022-08-06T22:55:48.923Z,16.80
2022-08-06T22:59:03.414Z,16.80
2022-08-06T23:01:08.997Z,16.80
2022-08-06T23:03:53.247Z,16.70
2022-08-06T23:06:26.906Z,16.60
2022-08-06T23:08:57.168Z,16.70
2022-08-06T23:11:24.473Z,16.70
2022-08-06T23:13:52.656Z,16.60
2022-08-06T23:16:27.673Z,16.60
2022-08-06T23:18:55.384Z,16.50
2022-08-06T23:21:50.386Z,16.50
2022-08-06T23:24:17.339Z,16.40
2022-08-06T23:26:44.288Z,16.40
2022-08-06T23:29:11.600Z,16.30
2022-08-06T23:31:39.558Z,16.40
2022-08-06T23:34:20.820Z,16.30
2022-08-06T23:36:57.356Z,16.30
2022-08-06T23:39:29.084Z,16.30
2022-08-06T23:42:08.580Z,16.30
2022-08-06T23:44:42.780Z,16.30
2022-08-06T23:47:54.328Z,16.30
2022-08-06T23:50:03.559Z,16.30
2022-08-06T23:52:30.562Z,16.30
2022-08-06T23:54:59.555Z,16.30
2022-08-06T23:57:47.872Z,16.30
